createdAt,value
2016-05-21T00:00:12.967Z,0
2016-05-21T00:01:12.859Z,0
2016-05-21T00:02:13.019Z,0
2016-05-21T00:03:13.053Z,0
2016-05-21T00:04:12.774Z,0
2016-05-21T00:05:13.120Z,0
2016-05-21T00:06:13.138Z,0
2016-05-21T00:07:13.001Z,0
2016-05-21T00:08:13.191Z,0
2016-05-21T00:09:13.225Z,0
2016-05-21T00:10:13.087Z,0
2016-05-21T00:11:13.242Z,0
2016-05-21T00:12:13.324Z,0
2016-05-21T00:13:13.201Z,0
2016-05-21T00:14:13.407Z,0
2016-05-21T00:15:13.441Z,0
2016-05-21T00:16:13.499Z,0
2016-05-21T00:17:13.507Z,0
2016-05-21T00:18:13.391Z,0
2016-05-21T00:19:13.571Z,0
2016-05-21T00:20:13.610Z,0
2016-05-21T00:21:13.507Z,0
2016-05-21T00:22:13.513Z,0
2016-05-21T00:23:13.689Z,0
2016-05-21T00:24:13.570Z,0
2016-05-21T00:25:13.746Z,0
2016-05-21T00:26:14.562Z,0
2016-05-21T00:27:13.800Z,0
2016-05-21T00:28:13.835Z,0
2016-05-21T00:29:13.869Z,0
2016-05-21T00:30:13.888Z,0
2016-05-21T00:31:13.907Z,0
2016-05-21T00:32:13.941Z,0
2016-05-21T00:33:13.959Z,0
2016-05-21T00:34:13.837Z,0
2016-05-21T00:35:14.012Z,0
2016-05-21T00:36:14.030Z,0
2016-05-21T00:37:14.064Z,0
2016-05-21T00:38:13.942Z,0
2016-05-21T00:39:14.116Z,0
2016-05-21T00:40:14.150Z,0
2016-05-21T00:41:14.028Z,0
2016-05-21T00:42:14.030Z,0
2016-05-21T00:43:14.220Z,0
2016-05-21T00:44:14.238Z,0
2016-05-21T00:45:14.289Z,0
2016-05-21T00:46:14.323Z,0
2016-05-21T00:47:14.341Z,0
2016-05-21T00:48:14.359Z,0
2016-05-21T00:49:14.236Z,0
2016-05-21T00:50:14.411Z,0
2016-05-21T00:51:14.430Z,0
2016-05-21T00:52:14.463Z,0
2016-05-21T00:53:14.482Z,0
2016-05-21T00:54:14.515Z,0
2016-05-21T00:55:14.549Z,0
2016-05-21T00:56:15.146Z,0
2016-05-21T00:57:14.429Z,0
2016-05-21T00:58:14.620Z,0
2016-05-21T00:59:14.638Z,0
2016-05-21T01:00:14.657Z,0
2016-05-21T01:01:14.535Z,0
2016-05-21T01:02:14.725Z,0
2016-05-21T01:03:14.587Z,0
2016-05-21T01:04:14.777Z,0
2016-05-21T01:05:14.639Z,0
2016-05-21T01:06:14.829Z,0
2016-05-21T01:07:14.692Z,0
2016-05-21T01:08:14.866Z,0
2016-05-21T01:09:14.900Z,0
2016-05-21T01:10:14.917Z,0
2016-05-21T01:11:15.124Z,0
2016-05-21T01:12:14.986Z,0
2016-05-21T01:13:14.535Z,0
2016-05-21T01:14:15.023Z,0
2016-05-21T01:15:15.088Z,0
2016-05-21T01:16:15.075Z,0
2016-05-21T01:17:15.109Z,0
2016-05-21T01:18:15.127Z,0
2016-05-21T01:19:15.177Z,0
2016-05-21T01:20:15.195Z,0
2016-05-21T01:21:15.197Z,0
2016-05-21T01:22:15.247Z,0
2016-05-21T01:23:15.110Z,0
2016-05-21T01:24:15.143Z,0
2016-05-21T01:25:15.302Z,0
2016-05-21T01:26:15.351Z,0
2016-05-21T01:27:15.354Z,0
2016-05-21T01:28:15.388Z,0
2016-05-21T01:29:15.266Z,0
2016-05-21T01:30:15.441Z,0
2016-05-21T01:31:15.474Z,0
2016-05-21T01:32:15.493Z,0
2016-05-21T01:33:15.527Z,0
2016-05-21T01:34:15.545Z,0
2016-05-21T01:35:15.579Z,0
2016-05-21T01:36:15.598Z,0
2016-05-21T01:37:15.615Z,0
2016-05-21T01:38:15.634Z,0
2016-05-21T01:39:15.668Z,0
2016-05-21T01:40:15.561Z,0
2016-05-21T01:41:15.439Z,0
2016-05-21T01:42:15.770Z,0
2016-05-21T01:43:15.773Z,0
2016-05-21T01:44:15.807Z,0
2016-05-21T01:45:15.825Z,0
2016-05-21T01:46:15.859Z,0
2016-05-21T01:47:15.877Z,0
2016-05-21T01:48:15.755Z,0
2016-05-21T01:49:15.930Z,0
2016-05-21T01:50:15.650Z,0
2016-05-21T01:51:15.997Z,0
2016-05-21T01:52:16.015Z,0
2016-05-21T01:53:15.877Z,0
2016-05-21T01:54:16.068Z,0
2016-05-21T01:55:15.930Z,0
2016-05-21T01:56:15.964Z,0
2016-05-21T01:57:16.138Z,0
2016-05-21T01:58:16.001Z,0
2016-05-21T01:59:16.175Z,0
2016-05-21T02:00:16.209Z,0
2016-05-21T02:01:16.087Z,0
2016-05-21T02:02:16.261Z,0
2016-05-21T02:03:16.279Z,0
2016-05-21T02:04:16.345Z,0
2016-05-21T02:05:16.331Z,0
2016-05-21T02:06:16.381Z,0
2016-05-21T02:07:16.384Z,0
2016-05-21T02:08:16.464Z,0
2016-05-21T02:09:16.467Z,0
2016-05-21T02:10:16.486Z,0
2016-05-21T02:11:16.661Z,0
2016-05-21T02:12:16.523Z,0
2016-05-21T02:13:16.400Z,0
2016-05-21T02:14:16.278Z,0
2016-05-21T02:15:16.437Z,0
2016-05-21T02:16:16.627Z,0
2016-05-21T02:17:16.645Z,0
2016-05-21T02:18:16.507Z,0
2016-05-21T02:19:16.697Z,0
2016-05-21T02:20:16.810Z,0
2016-05-21T02:21:16.750Z,0
2016-05-21T02:22:16.768Z,0
2016-05-21T02:23:16.802Z,0
2016-05-21T02:24:16.821Z,0
2016-05-21T02:25:16.683Z,0
2016-05-21T02:26:16.732Z,0
2016-05-21T02:27:16.890Z,0
2016-05-21T02:28:16.785Z,0
2016-05-21T02:29:16.943Z,0
2016-05-21T02:30:16.977Z,0
2016-05-21T02:31:16.996Z,0
2016-05-21T02:32:16.857Z,0
2016-05-21T02:33:16.782Z,0
2016-05-21T02:34:17.081Z,0
2016-05-21T02:35:17.101Z,0
2016-05-21T02:36:17.133Z,0
2016-05-21T02:37:17.152Z,0
2016-05-21T02:38:17.171Z,0
2016-05-21T02:39:17.048Z,0
2016-05-21T02:40:17.082Z,0
2016-05-21T02:41:16.803Z,0
2016-05-21T02:42:17.134Z,0
2016-05-21T02:43:17.309Z,0
2016-05-21T02:44:17.170Z,0
2016-05-21T02:45:17.189Z,0
2016-05-21T02:46:17.394Z,0
2016-05-21T02:47:17.413Z,0
2016-05-21T02:48:17.447Z,0
2016-05-21T02:49:17.450Z,0
2016-05-21T02:50:17.484Z,0
2016-05-21T02:51:17.533Z,0
2016-05-21T02:52:17.567Z,0
2016-05-21T02:53:17.555Z,0
2016-05-21T02:54:17.604Z,0
2016-05-21T02:55:18.482Z,0
2016-05-21T02:56:17.719Z,0
2016-05-21T02:57:17.659Z,0
2016-05-21T02:58:17.537Z,4
2016-05-21T02:59:17.743Z,0
2016-05-21T03:00:17.761Z,4
2016-05-21T03:01:17.607Z,4
2016-05-21T03:02:17.781Z,0
2016-05-21T03:03:17.816Z,4
2016-05-21T03:04:17.693Z,4
2016-05-21T03:05:17.712Z,4
2016-05-21T03:06:17.573Z,4
2016-05-21T03:07:17.904Z,4
2016-05-21T03:08:17.626Z,4
2016-05-21T03:09:17.957Z,4
2016-05-21T03:10:17.834Z,4
2016-05-21T03:11:18.525Z,8
2016-05-21T03:12:18.028Z,4
2016-05-21T03:13:17.905Z,8
2016-05-21T03:14:18.080Z,8
2016-05-21T03:15:18.114Z,8
2016-05-21T03:16:18.147Z,12
2016-05-21T03:17:18.166Z,8
2016-05-21T03:18:18.184Z,12
2016-05-21T03:19:18.218Z,12
2016-05-21T03:20:18.081Z,16
2016-05-21T03:21:18.270Z,16
2016-05-21T03:22:18.133Z,16
2016-05-21T03:23:18.308Z,20
2016-05-21T03:24:18.357Z,24
2016-05-21T03:25:18.360Z,24
2016-05-21T03:26:18.737Z,28
2016-05-21T03:27:18.412Z,28
2016-05-21T03:28:18.430Z,28
2016-05-21T03:29:18.463Z,32
2016-05-21T03:30:18.498Z,32
2016-05-21T03:31:18.360Z,32
2016-05-21T03:32:18.534Z,32
2016-05-21T03:33:18.584Z,32
2016-05-21T03:34:18.587Z,36
2016-05-21T03:35:18.637Z,40
2016-05-21T03:36:18.482Z,48
2016-05-21T03:37:18.657Z,48
2016-05-21T03:38:18.691Z,48
2016-05-21T03:39:18.709Z,52
2016-05-21T03:40:18.587Z,56
2016-05-21T03:41:19.199Z,60
2016-05-21T03:42:18.795Z,68
2016-05-21T03:43:18.814Z,76
2016-05-21T03:44:18.832Z,84
2016-05-21T03:45:18.866Z,80
2016-05-21T03:46:18.884Z,80
2016-05-21T03:47:18.856Z,80
2016-05-21T03:48:18.937Z,84
2016-05-21T03:49:18.970Z,88
2016-05-21T03:50:18.989Z,96
2016-05-21T03:51:19.008Z,100
2016-05-21T03:52:19.041Z,108
2016-05-21T03:53:19.075Z,116
2016-05-21T03:54:18.938Z,120
2016-05-21T03:55:19.127Z,132
2016-05-21T03:56:19.849Z,144
2016-05-21T03:57:19.164Z,148
2016-05-21T03:58:19.183Z,148
2016-05-21T03:59:19.232Z,156
2016-05-21T04:00:19.079Z,156
2016-05-21T04:01:19.268Z,160
2016-05-21T04:02:19.287Z,164
2016-05-21T04:03:19.321Z,172
2016-05-21T04:04:19.183Z,184
2016-05-21T04:05:19.217Z,200
2016-05-21T04:06:19.391Z,208
2016-05-21T04:07:19.426Z,200
2016-05-21T04:08:19.287Z,216
2016-05-21T04:09:19.462Z,232
2016-05-21T04:10:19.481Z,236
2016-05-21T04:11:19.373Z,252
2016-05-21T04:12:19.548Z,276
2016-05-21T04:13:19.567Z,280
2016-05-21T04:14:19.585Z,272
2016-05-21T04:15:19.620Z,248
2016-05-21T04:16:19.653Z,228
2016-05-21T04:17:19.656Z,228
2016-05-21T04:18:19.798Z,252
2016-05-21T04:19:19.567Z,296
2016-05-21T04:20:19.586Z,320
2016-05-21T04:21:19.761Z,324
2016-05-21T04:22:19.794Z,280
2016-05-21T04:23:19.828Z,256
2016-05-21T04:24:19.846Z,264
2016-05-21T04:25:19.865Z,272
2016-05-21T04:26:20.116Z,268
2016-05-21T04:27:19.932Z,260
2016-05-21T04:28:19.966Z,260
2016-05-21T04:29:19.969Z,264
2016-05-21T04:30:19.847Z,288
2016-05-21T04:31:20.037Z,316
2016-05-21T04:32:20.040Z,336
2016-05-21T04:33:20.073Z,332
2016-05-21T04:34:20.091Z,316
2016-05-21T04:35:19.969Z,312
2016-05-21T04:36:20.128Z,332
2016-05-21T04:37:20.163Z,340
2016-05-21T04:38:19.884Z,336
2016-05-21T04:39:20.215Z,352
2016-05-21T04:40:20.249Z,372
2016-05-21T04:41:20.282Z,380
2016-05-21T04:42:20.301Z,392
2016-05-21T04:43:20.319Z,416
2016-05-21T04:44:20.337Z,432
2016-05-21T04:45:20.371Z,436
2016-05-21T04:46:20.078Z,452
2016-05-21T04:47:20.267Z,472
2016-05-21T04:48:20.442Z,468
2016-05-21T04:49:20.461Z,484
2016-05-21T04:50:20.495Z,512
2016-05-21T04:51:20.512Z,516
2016-05-21T04:52:20.547Z,524
2016-05-21T04:53:20.564Z,556
2016-05-21T04:54:20.599Z,568
2016-05-21T04:55:20.617Z,576
2016-05-21T04:56:20.651Z,592
2016-05-21T04:57:20.497Z,600
2016-05-21T04:58:20.530Z,604
2016-05-21T04:59:20.722Z,616
2016-05-21T05:00:20.599Z,616
2016-05-21T05:01:20.758Z,608
2016-05-21T05:02:20.479Z,592
2016-05-21T05:03:20.826Z,564
2016-05-21T05:04:20.532Z,548
2016-05-21T05:05:20.879Z,556
2016-05-21T05:06:20.912Z,572
2016-05-21T05:07:20.930Z,588
2016-05-21T05:08:20.792Z,576
2016-05-21T05:09:20.968Z,552
2016-05-21T05:10:21.001Z,556
2016-05-21T05:11:20.910Z,608
2016-05-21T05:12:20.726Z,668
2016-05-21T05:13:21.071Z,676
2016-05-21T05:14:21.090Z,672
2016-05-21T05:15:20.968Z,740
2016-05-21T05:16:21.143Z,784
2016-05-21T05:17:21.176Z,780
2016-05-21T05:18:21.195Z,732
2016-05-21T05:19:21.212Z,760
2016-05-21T05:20:21.247Z,792
2016-05-21T05:21:21.265Z,844
2016-05-21T05:22:21.299Z,880
2016-05-21T05:23:21.317Z,896
2016-05-21T05:24:21.351Z,900
2016-05-21T05:25:21.275Z,880
2016-05-21T05:26:21.606Z,896
2016-05-21T05:27:21.266Z,932
2016-05-21T05:28:21.440Z,936
2016-05-21T05:29:21.475Z,928
2016-05-21T05:30:21.336Z,968
2016-05-21T05:31:21.526Z,1032
2016-05-21T05:32:21.544Z,1036
2016-05-21T05:33:21.594Z,1000
2016-05-21T05:34:21.597Z,972
2016-05-21T05:35:21.615Z,912
2016-05-21T05:36:21.634Z,812
2016-05-21T05:37:21.682Z,728
2016-05-21T05:38:21.701Z,692
2016-05-21T05:39:21.735Z,680
2016-05-21T05:40:21.754Z,692
2016-05-21T05:41:21.740Z,704
2016-05-21T05:42:21.821Z,736
2016-05-21T05:43:21.824Z,764
2016-05-21T05:44:21.859Z,768
2016-05-21T05:45:21.876Z,740
2016-05-21T05:46:21.895Z,756
2016-05-21T05:47:21.928Z,820
2016-05-21T05:48:21.837Z,784
2016-05-21T05:49:21.981Z,784
2016-05-21T05:50:22.015Z,852
2016-05-21T05:51:21.877Z,980
2016-05-21T05:52:22.145Z,940
2016-05-21T05:53:22.211Z,900
2016-05-21T05:54:22.197Z,896
2016-05-21T05:55:22.122Z,944
2016-05-21T05:56:22.312Z,1032
2016-05-21T05:57:22.190Z,1080
2016-05-21T05:58:22.208Z,1100
2016-05-21T05:59:22.227Z,1116
2016-05-21T06:00:22.260Z,1088
2016-05-21T06:01:22.279Z,1092
2016-05-21T06:02:22.313Z,1100
2016-05-21T06:03:22.331Z,1084
2016-05-21T06:04:22.350Z,1072
2016-05-21T06:05:22.477Z,1080
2016-05-21T06:06:22.308Z,1100
2016-05-21T06:07:22.466Z,1100
2016-05-21T06:08:22.469Z,1080
2016-05-21T06:09:22.488Z,1084
2016-05-21T06:10:22.366Z,1072
2016-05-21T06:11:22.321Z,1068
2016-05-21T06:12:22.559Z,1032
2016-05-21T06:13:22.671Z,1000
2016-05-21T06:14:22.564Z,948
2016-05-21T06:15:22.629Z,912
2016-05-21T06:16:22.460Z,888
2016-05-21T06:17:22.697Z,864
2016-05-21T06:18:22.731Z,880
2016-05-21T06:19:22.578Z,896
2016-05-21T06:20:22.767Z,928
2016-05-21T06:21:22.879Z,984
2016-05-21T06:22:22.507Z,1064
2016-05-21T06:23:22.854Z,1176
2016-05-21T06:24:22.872Z,1232
2016-05-21T06:25:22.890Z,1284
2016-05-21T06:26:22.925Z,1316
2016-05-21T06:27:22.786Z,1320
2016-05-21T06:28:22.977Z,1300
2016-05-21T06:29:22.995Z,1272
2016-05-21T06:30:23.028Z,1268
2016-05-21T06:31:23.047Z,1240
2016-05-21T06:32:23.080Z,1240
2016-05-21T06:33:22.974Z,1264
2016-05-21T06:34:23.133Z,1256
2016-05-21T06:35:23.152Z,1272
2016-05-21T06:36:23.186Z,1316
2016-05-21T06:37:23.204Z,1384
2016-05-21T06:38:23.082Z,1460
2016-05-21T06:39:23.257Z,1452
2016-05-21T06:40:23.275Z,1400
2016-05-21T06:41:23.667Z,1352
2016-05-21T06:42:23.327Z,1336
2016-05-21T06:43:23.345Z,1308
2016-05-21T06:44:23.379Z,1276
2016-05-21T06:45:23.412Z,1256
2016-05-21T06:46:23.431Z,1224
2016-05-21T06:47:23.465Z,1224
2016-05-21T06:48:23.499Z,1264
2016-05-21T06:49:23.534Z,1272
2016-05-21T06:50:23.411Z,1208
2016-05-21T06:51:23.414Z,1100
2016-05-21T06:52:23.587Z,1020
2016-05-21T06:53:23.622Z,1004
2016-05-21T06:54:23.640Z,912
2016-05-21T06:55:23.518Z,840
2016-05-21T06:56:23.583Z,880
2016-05-21T06:57:23.726Z,1024
2016-05-21T06:58:23.761Z,1104
2016-05-21T06:59:23.778Z,1028
2016-05-21T07:00:23.797Z,928
2016-05-21T07:01:23.831Z,896
2016-05-21T07:02:23.864Z,872
2016-05-21T07:03:23.883Z,884
2016-05-21T07:04:23.902Z,852
2016-05-21T07:05:23.936Z,780
2016-05-21T07:06:23.954Z,724
2016-05-21T07:07:23.988Z,704
2016-05-21T07:08:24.006Z,700
2016-05-21T07:09:24.040Z,700
2016-05-21T07:10:24.073Z,716
2016-05-21T07:11:24.233Z,724
2016-05-21T07:12:24.126Z,696
2016-05-21T07:13:24.144Z,696
2016-05-21T07:14:24.163Z,700
2016-05-21T07:15:24.040Z,692
2016-05-21T07:16:24.215Z,692
2016-05-21T07:17:24.249Z,692
2016-05-21T07:18:24.268Z,684
2016-05-21T07:19:24.145Z,688
2016-05-21T07:20:24.179Z,704
2016-05-21T07:21:24.354Z,712
2016-05-21T07:22:24.372Z,728
2016-05-21T07:23:24.109Z,744
2016-05-21T07:24:24.423Z,752
2016-05-21T07:25:24.459Z,756
2016-05-21T07:26:24.367Z,768
2016-05-21T07:27:24.525Z,772
2016-05-21T07:28:24.389Z,780
2016-05-21T07:29:24.578Z,784
2016-05-21T07:30:24.597Z,788
2016-05-21T07:31:24.834Z,800
2016-05-21T07:32:24.649Z,840
2016-05-21T07:33:24.683Z,896
2016-05-21T07:34:24.685Z,888
2016-05-21T07:35:24.719Z,908
2016-05-21T07:36:24.441Z,988
2016-05-21T07:37:24.771Z,968
2016-05-21T07:38:24.805Z,940
2016-05-21T07:39:24.824Z,972
2016-05-21T07:40:24.858Z,968
2016-05-21T07:41:25.407Z,980
2016-05-21T07:42:24.910Z,996
2016-05-21T07:43:24.785Z,972
2016-05-21T07:44:24.960Z,956
2016-05-21T07:45:24.993Z,952
2016-05-21T07:46:25.012Z,972
2016-05-21T07:47:25.046Z,1024
2016-05-21T07:48:24.924Z,1064
2016-05-21T07:49:25.098Z,1112
2016-05-21T07:50:24.804Z,1168
2016-05-21T07:51:25.151Z,1200
2016-05-21T07:52:25.184Z,1220
2016-05-21T07:53:25.202Z,1228
2016-05-21T07:54:25.096Z,1244
2016-05-21T07:55:25.098Z,1268
2016-05-21T07:56:25.132Z,1296
2016-05-21T07:57:25.151Z,1300
2016-05-21T07:58:25.184Z,1288
2016-05-21T07:59:25.047Z,1288
2016-05-21T08:00:25.409Z,1280
2016-05-21T08:01:25.428Z,1280
2016-05-21T08:02:25.461Z,1272
2016-05-21T08:03:25.480Z,1280
2016-05-21T08:04:25.497Z,1396
2016-05-21T08:05:25.531Z,1276
2016-05-21T08:06:25.394Z,1044
2016-05-21T08:07:25.428Z,892
2016-05-21T08:08:25.602Z,816
2016-05-21T08:09:25.636Z,796
2016-05-21T08:10:25.655Z,844
2016-05-21T08:11:25.391Z,992
2016-05-21T08:12:25.722Z,1152
2016-05-21T08:13:25.757Z,1344
2016-05-21T08:14:25.774Z,1360
2016-05-21T08:15:25.794Z,1012
2016-05-21T08:16:25.826Z,836
2016-05-21T08:17:25.861Z,820
2016-05-21T08:18:25.879Z,656
2016-05-21T08:19:25.773Z,664
2016-05-21T08:20:25.932Z,772
2016-05-21T08:21:25.965Z,856
2016-05-21T08:22:25.999Z,756
2016-05-21T08:23:26.018Z,880
2016-05-21T08:24:26.036Z,1000
2016-05-21T08:25:26.070Z,888
2016-05-21T08:26:26.307Z,840
2016-05-21T08:27:26.122Z,992
2016-05-21T08:28:26.156Z,1144
2016-05-21T08:29:26.034Z,944
2016-05-21T08:30:26.209Z,1012
2016-05-21T08:31:26.086Z,1148
2016-05-21T08:32:26.292Z,1096
2016-05-21T08:33:26.310Z,948
2016-05-21T08:34:26.344Z,868
2016-05-21T08:35:26.191Z,828
2016-05-21T08:36:26.381Z,780
2016-05-21T08:37:26.400Z,560
2016-05-21T08:38:26.433Z,556
2016-05-21T08:39:26.295Z,564
2016-05-21T08:40:26.485Z,564
2016-05-21T08:41:26.535Z,764
2016-05-21T08:42:26.381Z,772
2016-05-21T08:43:26.415Z,888
2016-05-21T08:44:26.605Z,768
2016-05-21T08:45:26.624Z,924
2016-05-21T08:46:26.657Z,1000
2016-05-21T08:47:26.691Z,644
2016-05-21T08:48:26.726Z,860
2016-05-21T08:49:26.604Z,1056
2016-05-21T08:50:26.777Z,904
2016-05-21T08:51:26.796Z,916
2016-05-21T08:52:26.517Z,944
2016-05-21T08:53:26.848Z,968
2016-05-21T08:54:26.882Z,1020
2016-05-21T08:55:26.916Z,896
2016-05-21T08:56:27.559Z,904
2016-05-21T08:57:26.968Z,756
2016-05-21T08:58:26.987Z,1040
2016-05-21T08:59:27.037Z,700
2016-05-21T09:00:27.070Z,620
2016-05-21T09:01:26.901Z,612
2016-05-21T09:02:26.966Z,632
2016-05-21T09:03:27.142Z,1012
2016-05-21T09:04:27.159Z,964
2016-05-21T09:05:27.192Z,1368
2016-05-21T09:06:27.087Z,1712
2016-05-21T09:07:27.245Z,1796
2016-05-21T09:08:27.280Z,1368
2016-05-21T09:09:27.158Z,1184
2016-05-21T09:10:27.332Z,1288
2016-05-21T09:11:27.725Z,1432
2016-05-21T09:12:27.400Z,1536
2016-05-21T09:13:27.261Z,1628
2016-05-21T09:14:27.139Z,1660
2016-05-21T09:15:27.502Z,1576
2016-05-21T09:16:27.347Z,1516
2016-05-21T09:17:27.554Z,1216
2016-05-21T09:18:27.594Z,1112
2016-05-21T09:19:27.634Z,1176
2016-05-21T09:20:27.688Z,1388
2016-05-21T09:21:27.743Z,1444
2016-05-21T09:22:27.783Z,1492
2016-05-21T09:23:27.823Z,1556
2016-05-21T09:24:27.865Z,1696
2016-05-21T09:25:27.595Z,1656
2016-05-21T09:26:27.949Z,1484
2016-05-21T09:27:27.975Z,1264
2016-05-21T09:28:27.995Z,1156
2016-05-21T09:29:27.875Z,1120
2016-05-21T09:30:27.928Z,1152
2016-05-21T09:31:27.949Z,748
2016-05-21T09:32:28.142Z,692
2016-05-21T09:33:28.177Z,728
2016-05-21T09:34:28.196Z,732
2016-05-21T09:35:28.232Z,788
2016-05-21T09:36:28.267Z,708
2016-05-21T09:37:28.286Z,684
2016-05-21T09:38:28.180Z,736
2016-05-21T09:39:28.340Z,880
2016-05-21T09:40:28.373Z,1036
2016-05-21T09:41:28.251Z,1516
2016-05-21T09:42:28.427Z,948
2016-05-21T09:43:28.477Z,1476
2016-05-21T09:44:28.495Z,1660
2016-05-21T09:45:28.528Z,1980
2016-05-21T09:46:28.562Z,1900
2016-05-21T09:47:28.440Z,2100
2016-05-21T09:48:28.631Z,1880
2016-05-21T09:49:28.493Z,1564
2016-05-21T09:50:28.353Z,1436
2016-05-21T09:51:28.717Z,1436
2016-05-21T09:52:28.734Z,1448
2016-05-21T09:53:28.769Z,1484
2016-05-21T09:54:28.786Z,1472
2016-05-21T09:55:28.821Z,1468
2016-05-21T09:56:28.980Z,960
2016-05-21T09:57:28.888Z,1384
2016-05-21T09:58:28.922Z,1280
2016-05-21T09:59:28.957Z,1428
2016-05-21T10:00:28.991Z,1404
2016-05-21T10:01:28.852Z,1432
2016-05-21T10:02:29.043Z,1460
2016-05-21T10:03:29.077Z,1504
2016-05-21T10:04:29.096Z,1508
2016-05-21T10:05:29.129Z,1540
2016-05-21T10:06:28.991Z,1616
2016-05-21T10:07:29.182Z,1728
2016-05-21T10:08:29.215Z,2072
2016-05-21T10:09:29.109Z,2208
2016-05-21T10:10:29.283Z,2308
2016-05-21T10:11:29.332Z,2084
2016-05-21T10:12:29.335Z,2020
2016-05-21T10:13:29.370Z,1868
2016-05-21T10:14:29.090Z,1780
2016-05-21T10:15:29.437Z,1968
2016-05-21T10:16:29.470Z,2140
2016-05-21T10:17:29.506Z,2176
2016-05-21T10:18:29.539Z,2116
2016-05-21T10:19:29.556Z,2220
2016-05-21T10:20:29.591Z,2216
2016-05-21T10:21:29.626Z,2204
2016-05-21T10:22:29.659Z,1968
2016-05-21T10:23:29.693Z,1828
2016-05-21T10:24:29.759Z,1764
2016-05-21T10:25:29.745Z,1804
2016-05-21T10:26:30.169Z,1856
2016-05-21T10:27:29.813Z,1848
2016-05-21T10:28:29.831Z,1864
2016-05-21T10:29:29.709Z,1952
2016-05-21T10:30:29.899Z,1936
2016-05-21T10:31:29.808Z,1716
2016-05-21T10:32:29.967Z,1784
2016-05-21T10:33:30.002Z,2616
2016-05-21T10:34:30.035Z,3036
2016-05-21T10:35:29.913Z,2952
2016-05-21T10:36:30.103Z,2808
2016-05-21T10:37:30.122Z,2788
2016-05-21T10:38:30.140Z,2912
2016-05-21T10:39:30.174Z,2776
2016-05-21T10:40:30.224Z,2468
2016-05-21T10:41:30.257Z,2348
2016-05-21T10:42:30.290Z,1900
2016-05-21T10:43:30.325Z,1712
2016-05-21T10:44:30.359Z,1764
2016-05-21T10:45:30.393Z,3024
2016-05-21T10:46:30.411Z,3068
2016-05-21T10:47:30.289Z,2500
2016-05-21T10:48:30.479Z,1712
2016-05-21T10:49:30.513Z,1596
2016-05-21T10:50:30.531Z,2828
2016-05-21T10:51:30.565Z,2628
2016-05-21T10:52:30.600Z,2168
2016-05-21T10:53:30.493Z,1324
2016-05-21T10:54:30.683Z,2676
2016-05-21T10:55:30.389Z,1936
2016-05-21T10:56:30.454Z,1968
2016-05-21T10:57:30.770Z,3100
2016-05-21T10:58:30.802Z,3056
2016-05-21T10:59:30.697Z,2524
2016-05-21T11:00:30.871Z,1688
2016-05-21T11:01:30.889Z,1816
2016-05-21T11:02:30.922Z,2284
2016-05-21T11:03:30.817Z,3180
2016-05-21T11:04:31.007Z,2904
2016-05-21T11:05:31.024Z,2640
2016-05-21T11:06:31.074Z,2480
2016-05-21T11:07:31.093Z,2044
2016-05-21T11:08:31.143Z,1564
2016-05-21T11:09:31.004Z,1744
2016-05-21T11:10:31.179Z,2536
2016-05-21T11:11:31.307Z,2976
2016-05-21T11:12:31.107Z,2984
2016-05-21T11:13:31.140Z,2568
2016-05-21T11:14:31.174Z,2620
2016-05-21T11:15:31.365Z,2668
2016-05-21T11:16:31.242Z,2472
2016-05-21T11:17:31.417Z,2468
2016-05-21T11:18:31.466Z,2564
2016-05-21T11:19:31.500Z,2668
2016-05-21T11:20:31.534Z,2748
2016-05-21T11:21:31.662Z,2752
2016-05-21T11:22:31.601Z,2708
2016-05-21T11:23:31.620Z,2696
2016-05-21T11:24:31.748Z,2652
2016-05-21T11:25:31.688Z,2816
2016-05-21T11:26:31.675Z,3072
2016-05-21T11:27:32.021Z,2196
2016-05-21T11:28:31.790Z,2996
2016-05-21T11:29:31.761Z,2840
2016-05-21T11:30:31.702Z,3924
2016-05-21T11:31:31.891Z,4584
2016-05-21T11:32:31.941Z,4676
2016-05-21T11:33:31.960Z,4612
2016-05-21T11:34:31.994Z,4248
2016-05-21T11:35:32.043Z,3924
2016-05-21T11:36:31.921Z,3688
2016-05-21T11:37:31.939Z,3344
2016-05-21T11:38:32.286Z,3332
2016-05-21T11:39:32.288Z,3320
2016-05-21T11:40:32.197Z,3272
2016-05-21T11:41:32.168Z,3316
2016-05-21T11:42:32.671Z,3192
2016-05-21T11:43:32.298Z,3324
2016-05-21T11:44:32.177Z,3176
2016-05-21T11:45:32.367Z,2964
2016-05-21T11:46:32.245Z,3568
2016-05-21T11:47:32.435Z,4180
2016-05-21T11:48:32.313Z,4096
2016-05-21T11:49:32.346Z,3520
2016-05-21T11:50:32.537Z,3332
2016-05-21T11:51:32.570Z,3156
2016-05-21T11:52:32.604Z,2804
2016-05-21T11:53:32.654Z,2572
2016-05-21T11:54:32.672Z,2420
2016-05-21T11:55:32.722Z,2244
2016-05-21T11:56:32.600Z,2428
2016-05-21T11:57:33.025Z,2596
2016-05-21T11:58:32.511Z,2584
2016-05-21T11:59:32.858Z,2688
2016-05-21T12:00:32.891Z,3716
2016-05-21T12:01:32.925Z,3128
2016-05-21T12:02:33.005Z,3376
2016-05-21T12:03:32.837Z,3576
2016-05-21T12:04:33.044Z,3876
2016-05-21T12:05:33.061Z,3896
2016-05-21T12:06:32.938Z,3728
2016-05-21T12:07:33.129Z,3628
2016-05-21T12:08:33.163Z,3784
2016-05-21T12:09:33.197Z,3816
2016-05-21T12:10:33.091Z,3692
2016-05-21T12:11:33.233Z,3812
2016-05-21T12:12:33.408Z,3844
2016-05-21T12:13:33.457Z,3848
2016-05-21T12:14:33.226Z,3868
2016-05-21T12:15:33.416Z,4000
2016-05-21T12:16:33.451Z,4140
2016-05-21T12:17:33.484Z,4120
2016-05-21T12:18:33.518Z,4104
2016-05-21T12:19:33.552Z,4100
2016-05-21T12:20:33.586Z,3840
2016-05-21T12:21:33.620Z,3912
2016-05-21T12:22:33.670Z,3904
2016-05-21T12:23:33.719Z,3440
2016-05-21T12:24:33.722Z,4156
2016-05-21T12:25:33.771Z,4336
2016-05-21T12:26:34.320Z,4260
2016-05-21T12:27:34.042Z,3948
2016-05-21T12:28:33.733Z,3992
2016-05-21T12:29:33.906Z,4220
2016-05-21T12:30:34.034Z,4388
2016-05-21T12:31:33.975Z,4352
2016-05-21T12:32:34.025Z,4264
2016-05-21T12:33:33.887Z,4008
2016-05-21T12:34:34.092Z,3864
2016-05-21T12:35:34.127Z,3804
2016-05-21T12:36:34.004Z,2964
2016-05-21T12:37:34.038Z,3228
2016-05-21T12:38:34.227Z,2532
2016-05-21T12:39:34.294Z,3300
2016-05-21T12:40:34.390Z,3920
2016-05-21T12:41:34.282Z,4092
2016-05-21T12:42:34.224Z,2936
2016-05-21T12:43:34.476Z,3840
2016-05-21T12:44:34.479Z,3588
2016-05-21T12:45:34.497Z,3564
2016-05-21T12:46:34.515Z,3780
2016-05-21T12:47:34.393Z,4152
2016-05-21T12:48:34.598Z,3684
2016-05-21T12:49:34.632Z,2864
2016-05-21T12:50:34.667Z,2756
2016-05-21T12:51:34.545Z,4320
2016-05-21T12:52:34.735Z,4900
2016-05-21T12:53:34.768Z,4976
2016-05-21T12:54:34.803Z,4408
2016-05-21T12:55:34.930Z,4088
2016-05-21T12:56:34.823Z,4172
2016-05-21T12:57:35.092Z,4028
2016-05-21T12:58:34.797Z,4116
2016-05-21T12:59:34.987Z,4308
2016-05-21T13:00:35.022Z,2752
2016-05-21T13:01:35.056Z,3200
2016-05-21T13:02:35.089Z,3648
2016-05-21T13:03:34.983Z,4560
2016-05-21T13:04:35.173Z,4496
2016-05-21T13:05:35.222Z,4396
2016-05-21T13:06:35.085Z,4340
2016-05-21T13:07:35.274Z,4176
2016-05-21T13:08:35.449Z,4524
2016-05-21T13:09:35.343Z,4652
2016-05-21T13:10:35.392Z,4908
2016-05-21T13:11:35.599Z,5112
2016-05-21T13:12:35.460Z,5412
2016-05-21T13:13:35.494Z,5448
2016-05-21T13:14:35.527Z,5512
2016-05-21T13:15:35.563Z,5388
2016-05-21T13:16:35.454Z,5152
2016-05-21T13:17:35.645Z,5012
2016-05-21T13:18:35.679Z,5084
2016-05-21T13:19:35.666Z,3804
2016-05-21T13:20:35.607Z,3692
2016-05-21T13:21:35.796Z,4964
2016-05-21T13:22:35.831Z,5028
2016-05-21T13:23:35.865Z,4792
2016-05-21T13:24:35.758Z,3828
2016-05-21T13:25:35.948Z,3948
2016-05-21T13:26:35.920Z,4800
2016-05-21T13:27:36.016Z,4924
2016-05-21T13:28:36.050Z,4992
2016-05-21T13:29:36.084Z,4968
2016-05-21T13:30:36.134Z,4920
2016-05-21T13:31:36.168Z,4976
2016-05-21T13:32:36.045Z,4448
2016-05-21T13:33:36.078Z,3268
2016-05-21T13:34:36.269Z,3044
2016-05-21T13:35:36.303Z,2832
2016-05-21T13:36:36.353Z,2692
2016-05-21T13:37:36.231Z,2504
2016-05-21T13:38:36.421Z,2308
2016-05-21T13:39:36.564Z,2264
2016-05-21T13:40:36.597Z,2292
2016-05-21T13:41:36.430Z,2460
2016-05-21T13:42:36.838Z,3664
2016-05-21T13:43:36.621Z,3544
2016-05-21T13:44:36.655Z,4212
2016-05-21T13:45:36.690Z,6624
2016-05-21T13:46:36.568Z,6060
2016-05-21T13:47:36.773Z,5596
2016-05-21T13:48:36.807Z,5268